NO-0027 weather

Torsnes Airfield
Borge, Østfold, Norway

Public forecast

Using degrees Celsius for public forecast. Weather courtesy of forecast.io.

Closest aviation weather report (METAR) to Torsnes Airfield

Closest report is Moss Airport, Rygge, 13.9 nm (25.8 km) NW. Retrieved 2020/06/02 09:50 UTC (23 minutes ago):

ENRY 020950Z 21005KT 160V260 CAVOK 22/12 Q1018 NOSIG

Closest aviation forecast (TAF) to Torsnes Airfield

Forecast is more than 12 hours old.

Closest forecast is Moss Airport, Rygge, 13.9 nm (25.8 km) NW. Retrieved 2020/06/01 19:06 UTC (15 hours ago):

TAF TAF ENRY 011957Z 0119/0218 CNL